Time;durP1;ratioP1;P1;durP2;ratioP2;P2;SDS_P1;SDS_P2;PMS_P1;PMS_P2;Temp;Humidity;BMP_temperature;BMP_pressure;BME280_temperature;BME280_humidity;BME280_pressure;Samples;Min_cycle;Max_cycle;Signal;HPM_P1;HPM_P2
2022/04/22 00:01:12;;;;;;;9.77;6.63;;;;;;;;;;4912484;29;20485;-66
2022/04/22 00:03:37;;;;;;;12.90;7.30;;;;;;;;;;4912237;29;20044;-66
2022/04/22 00:06:03;;;;;;;10.32;6.68;;;;;;;;;;4909866;29;20494;-68
2022/04/22 00:08:28;;;;;;;11.23;6.78;;;;;;;;;;4912658;29;20044;-66
2022/04/22 00:13:39;;;;;;;12.38;7.32;;;;;;;;;;4910927;29;20098;-66
2022/04/22 00:16:05;;;;;;;11.85;6.93;;;;;;;;;;4911639;29;20056;-66
2022/04/22 00:18:31;;;;;;;12.98;7.57;;;;;;;;;;4909417;29;20478;-68
2022/04/22 00:20:57;;;;;;;13.40;7.55;;;;;;;;;;4909588;29;20044;-65
2022/04/22 00:23:22;;;;;;;11.43;7.00;;;;;;;;;;4908139;29;20423;-68
2022/04/22 00:25:48;;;;;;;16.70;8.38;;;;;;;;;;4911981;28;20468;-67
2022/04/22 00:28:13;;;;;;;12.35;7.18;;;;;;;;;;4912934;29;20035;-66
2022/04/22 00:30:39;;;;;;;14.18;7.97;;;;;;;;;;4910114;29;20044;-67
2022/04/22 00:33:05;;;;;;;14.88;8.52;;;;;;;;;;4912781;29;20577;-66
2022/04/22 00:35:31;;;;;;;14.27;8.23;;;;;;;;;;4912581;29;20065;-69
2022/04/22 00:37:56;;;;;;;17.10;8.50;;;;;;;;;;4912156;29;20494;-65
2022/04/22 00:40:22;;;;;;;14.63;8.95;;;;;;;;;;4911804;29;20039;-67
2022/04/22 00:42:47;;;;;;;14.05;8.13;;;;;;;;;;4911182;29;20136;-67
2022/04/22 00:45:12;;;;;;;14.27;9.05;;;;;;;;;;4909966;29;20044;-66
2022/04/22 00:47:38;;;;;;;12.68;7.90;;;;;;;;;;4902714;29;20463;-68
2022/04/22 00:50:04;;;;;;;15.60;9.52;;;;;;;;;;4897900;29;20107;-68
2022/04/22 00:52:30;;;;;;;19.63;9.02;;;;;;;;;;4910586;28;20027;-67
2022/04/22 00:54:55;;;;;;;17.13;9.35;;;;;;;;;;4912339;29;20466;-67
2022/04/22 00:57:21;;;;;;;17.08;9.20;;;;;;;;;;4908855;29;20072;-67
2022/04/22 00:59:47;;;;;;;15.05;9.10;;;;;;;;;;4909521;29;20047;-66
2022/04/22 01:02:13;;;;;;;18.85;9.60;;;;;;;;;;4912102;29;20492;-68
2022/04/22 01:10:08;;;;;;;16.27;9.77;;;;;;;;;;4909900;29;20055;-65
2022/04/22 01:12:33;;;;;;;15.50;9.52;;;;;;;;;;4909114;29;20036;-68
2022/04/22 01:14:59;;;;;;;14.77;9.35;;;;;;;;;;4908632;29;20119;-67
2022/04/22 01:17:29;;;;;;;21.85;9.80;;;;;;;;;;4906698;29;20048;-67
2022/04/22 01:19:55;;;;;;;16.55;9.15;;;;;;;;;;4910309;29;20056;-66
2022/04/22 01:22:21;;;;;;;16.63;9.57;;;;;;;;;;4910344;29;20498;-67
2022/04/22 01:24:53;;;;;;;16.00;9.25;;;;;;;;;;4909026;29;20083;-68
2022/04/22 01:27:19;;;;;;;18.58;10.13;;;;;;;;;;4910189;29;20068;-68
2022/04/22 01:29:44;;;;;;;18.52;9.85;;;;;;;;;;4913425;29;20056;-67
2022/04/22 01:32:10;;;;;;;16.15;10.02;;;;;;;;;;4910906;29;20111;-67
2022/04/22 01:34:35;;;;;;;18.85;9.90;;;;;;;;;;4914094;29;20032;-67
2022/04/22 01:37:00;;;;;;;14.95;9.20;;;;;;;;;;4914487;29;20051;-67
2022/04/22 01:39:29;;;;;;;17.38;9.70;;;;;;;;;;4913133;29;20078;-67
2022/04/22 01:41:55;;;;;;;15.90;9.85;;;;;;;;;;4910058;29;20079;-65
2022/04/22 01:44:20;;;;;;;16.95;9.80;;;;;;;;;;4910701;29;20068;-67
2022/04/22 01:46:45;;;;;;;14.73;9.57;;;;;;;;;;4915490;29;20111;-66
2022/04/22 01:49:11;;;;;;;13.05;9.30;;;;;;;;;;4913080;29;20436;-67
2022/04/22 01:51:36;;;;;;;18.35;10.70;;;;;;;;;;4912058;29;20059;-65
2022/04/22 01:54:02;;;;;;;16.98;10.13;;;;;;;;;;4914586;29;20044;-66
2022/04/22 01:56:27;;;;;;;19.42;10.30;;;;;;;;;;4913631;29;20080;-67
2022/04/22 01:58:53;;;;;;;16.45;10.32;;;;;;;;;;4912576;29;20123;-66
2022/04/22 02:01:18;;;;;;;16.65;10.50;;;;;;;;;;4916644;29;20040;-66
2022/04/22 02:03:44;;;;;;;18.83;10.77;;;;;;;;;;4911846;29;20055;-65
2022/04/22 02:06:09;;;;;;;18.77;10.18;;;;;;;;;;4915603;29;20462;-66
2022/04/22 02:08:36;;;;;;;15.75;10.43;;;;;;;;;;4912407;29;20062;-66
2022/04/22 02:11:02;;;;;;;17.80;10.30;;;;;;;;;;4912041;29;20074;-66
2022/04/22 02:13:28;;;;;;;15.48;10.10;;;;;;;;;;4912175;29;20486;-67
2022/04/22 02:15:53;;;;;;;18.48;10.95;;;;;;;;;;4915016;29;20032;-67
2022/04/22 02:18:18;;;;;;;20.17;11.48;;;;;;;;;;4912935;29;20048;-66
2022/04/22 02:20:44;;;;;;;18.00;10.50;;;;;;;;;;4913859;29;20080;-63
2022/04/22 02:23:13;;;;;;;17.10;10.57;;;;;;;;;;4912017;29;20059;-66
2022/04/22 02:25:38;;;;;;;17.48;10.38;;;;;;;;;;4913113;29;20028;-66
2022/04/22 02:30:48;;;;;;;17.30;10.15;;;;;;;;;;4913395;29;20116;-66
2022/04/22 02:33:14;;;;;;;17.58;10.20;;;;;;;;;;4909993;29;20055;-65
2022/04/22 02:35:39;;;;;;;17.98;10.50;;;;;;;;;;4908816;29;20143;-65
2022/04/22 02:38:05;;;;;;;16.70;10.57;;;;;;;;;;4911553;29;20146;-64
2022/04/22 02:45:58;;;;;;;17.70;10.35;;;;;;;;;;4913345;29;20051;-64
2022/04/22 02:48:23;;;;;;;17.88;10.80;;;;;;;;;;4913654;29;20056;-65
2022/04/22 02:50:49;;;;;;;19.50;10.95;;;;;;;;;;4910761;29;20061;-66
2022/04/22 02:53:14;;;;;;;19.50;10.85;;;;;;;;;;4914463;29;20055;-66
2022/04/22 02:55:48;;;;;;;21.15;11.15;;;;;;;;;;4917133;29;20053;-65
2022/04/22 02:58:13;;;;;;;17.90;10.20;;;;;;;;;;4910790;29;20464;-66
2022/04/22 03:00:39;;;;;;;15.10;10.27;;;;;;;;;;4910655;29;20052;-65
2022/04/22 03:03:05;;;;;;;18.00;10.68;;;;;;;;;;4913262;29;20495;-63
2022/04/22 03:05:30;;;;;;;16.48;10.48;;;;;;;;;;4903006;29;20159;-66
2022/04/22 03:07:55;;;;;;;17.42;10.48;;;;;;;;;;4898478;29;20044;-63
2022/04/22 03:10:21;;;;;;;16.60;9.40;;;;;;;;;;4911287;29;20036;-66
2022/04/22 03:12:46;;;;;;;18.10;10.68;;;;;;;;;;4911214;29;20051;-65
2022/04/22 03:15:12;;;;;;;16.50;10.15;;;;;;;;;;4913456;29;20075;-65
2022/04/22 03:17:37;;;;;;;17.73;9.80;;;;;;;;;;4911952;29;20092;-66
2022/04/22 03:20:03;;;;;;;19.17;10.50;;;;;;;;;;4912279;29;20483;-63
2022/04/22 03:22:28;;;;;;;17.50;10.10;;;;;;;;;;4911435;29;20032;-65
2022/04/22 03:24:54;;;;;;;16.20;9.52;;;;;;;;;;4914004;29;20395;-65
2022/04/22 03:27:20;;;;;;;16.73;9.90;;;;;;;;;;4910968;29;20052;-65
2022/04/22 03:29:45;;;;;;;20.10;10.07;;;;;;;;;;4913657;29;20051;-65
2022/04/22 03:32:11;;;;;;;15.38;9.70;;;;;;;;;;4906034;29;20045;-65
2022/04/22 03:34:36;;;;;;;17.50;10.18;;;;;;;;;;4897073;28;20064;-64
2022/04/22 03:37:02;;;;;;;17.23;9.68;;;;;;;;;;4909949;29;20033;-66
2022/04/22 03:39:27;;;;;;;16.50;9.45;;;;;;;;;;4899151;29;20049;-66
2022/04/22 03:41:53;;;;;;;15.50;9.80;;;;;;;;;;4903585;29;20096;-66
2022/04/22 03:44:18;;;;;;;15.68;9.93;;;;;;;;;;4909483;29;20080;-67
2022/04/22 03:46:44;;;;;;;15.80;9.77;;;;;;;;;;4914454;29;20118;-65
2022/04/22 03:49:09;;;;;;;16.95;10.23;;;;;;;;;;4913065;29;20036;-66
2022/04/22 03:51:35;;;;;;;15.77;9.82;;;;;;;;;;4909722;29;20191;-66
2022/04/22 03:54:01;;;;;;;15.85;9.52;;;;;;;;;;4912555;29;20513;-64
2022/04/22 03:59:10;;;;;;;16.02;9.68;;;;;;;;;;4898567;29;20054;-65
2022/04/22 04:01:36;;;;;;;16.05;9.63;;;;;;;;;;4908748;29;20031;-65
2022/04/22 04:04:01;;;;;;;16.75;9.77;;;;;;;;;;4912951;29;20364;-66
2022/04/22 04:06:27;;;;;;;16.42;9.00;;;;;;;;;;4910931;29;20052;-65
2022/04/22 04:17:06;;;;;;;15.25;9.52;;;;;;;;;;4910996;29;20054;-66
2022/04/22 04:24:59;;;;;;;14.68;8.82;;;;;;;;;;4912537;29;20075;-65
2022/04/22 04:27:24;;;;;;;16.65;9.38;;;;;;;;;;4914351;29;20491;-66
2022/04/22 04:29:50;;;;;;;17.63;9.40;;;;;;;;;;4913303;29;20043;-65
2022/04/22 04:32:17;;;;;;;16.40;8.82;;;;;;;;;;4907882;29;20048;-64
2022/04/22 04:34:44;;;;;;;16.88;9.70;;;;;;;;;;4911172;29;20184;-66
2022/04/22 04:37:09;;;;;;;15.68;9.35;;;;;;;;;;4892349;29;20043;-65
2022/04/22 04:39:35;;;;;;;16.65;9.10;;;;;;;;;;4893760;29;20427;-66
2022/04/22 04:42:01;;;;;;;15.18;8.20;;;;;;;;;;4903694;29;20067;-64
2022/04/22 04:44:26;;;;;;;14.15;9.10;;;;;;;;;;4905943;29;20048;-65
2022/04/22 04:46:52;;;;;;;14.65;8.95;;;;;;;;;;4895325;29;20504;-66
2022/04/22 04:49:17;;;;;;;13.02;8.80;;;;;;;;;;4906175;29;20043;-64
2022/04/22 04:51:43;;;;;;;12.63;8.65;;;;;;;;;;4911375;29;20092;-64
2022/04/22 04:54:08;;;;;;;14.38;8.27;;;;;;;;;;4898568;29;20044;-67
2022/04/22 04:56:33;;;;;;;14.30;8.70;;;;;;;;;;4888034;29;20051;-66
2022/04/22 04:58:59;;;;;;;13.27;9.00;;;;;;;;;;4887477;29;20059;-65
2022/04/22 05:01:24;;;;;;;14.40;8.90;;;;;;;;;;4887873;29;20040;-66
2022/04/22 05:03:49;;;;;;;14.82;8.93;;;;;;;;;;4893429;29;20052;-66
2022/04/22 05:06:15;;;;;;;15.20;8.82;;;;;;;;;;4890921;29;20052;-67
2022/04/22 05:08:40;;;;;;;12.10;7.78;;;;;;;;;;4891810;29;20132;-66
2022/04/22 05:11:06;;;;;;;12.13;8.05;;;;;;;;;;4889959;29;20055;-66
2022/04/22 05:13:31;;;;;;;12.40;8.38;;;;;;;;;;4890904;29;20500;-66
2022/04/22 05:15:57;;;;;;;15.13;8.07;;;;;;;;;;4892668;29;20471;-56
2022/04/22 05:18:23;;;;;;;13.23;7.57;;;;;;;;;;4889438;29;20101;-53
2022/04/22 05:20:49;;;;;;;12.00;8.10;;;;;;;;;;4889976;29;20049;-59
2022/04/22 05:23:14;;;;;;;13.13;7.82;;;;;;;;;;4892051;29;20139;-56
2022/04/22 05:25:40;;;;;;;11.07;7.60;;;;;;;;;;4889111;29;20033;-57
2022/04/22 05:28:06;;;;;;;13.18;7.53;;;;;;;;;;4891481;29;20071;-57
2022/04/22 05:33:16;;;;;;;11.70;6.93;;;;;;;;;;4891639;29;20060;-58
2022/04/22 05:35:42;;;;;;;12.13;7.68;;;;;;;;;;4889691;29;20048;-57
2022/04/22 05:38:09;;;;;;;11.25;7.28;;;;;;;;;;4892845;29;20045;-58
2022/04/22 05:40:39;;;;;;;11.73;7.40;;;;;;;;;;4892110;29;20494;-57
2022/04/22 05:43:08;;;;;;;10.30;7.10;;;;;;;;;;4891755;29;20039;-58
2022/04/22 05:45:35;;;;;;;10.85;6.72;;;;;;;;;;4890947;29;20090;-56
2022/04/22 05:48:01;;;;;;;9.40;6.38;;;;;;;;;;4893285;29;20056;-57
2022/04/22 05:50:27;;;;;;;10.02;6.63;;;;;;;;;;4891623;29;20108;-57
2022/04/22 05:52:53;;;;;;;11.10;6.93;;;;;;;;;;4890271;29;20062;-54
2022/04/22 05:55:21;;;;;;;11.63;6.65;;;;;;;;;;4888186;29;20482;-58
2022/04/22 05:57:49;;;;;;;9.90;6.60;;;;;;;;;;4890612;29;20049;-56
2022/04/22 06:00:18;;;;;;;9.13;6.28;;;;;;;;;;4891047;29;20167;-57
2022/04/22 06:02:44;;;;;;;9.20;5.80;;;;;;;;;;4892582;29;20104;-59
2022/04/22 06:05:10;;;;;;;11.25;5.97;;;;;;;;;;4892208;29;20053;-60
2022/04/22 06:07:40;;;;;;;8.55;6.10;;;;;;;;;;4891139;29;20037;-59
2022/04/22 06:12:51;;;;;;;7.85;5.80;;;;;;;;;;4912265;29;20055;-56
2022/04/22 06:15:17;;;;;;;8.00;5.72;;;;;;;;;;4911239;29;20426;-55
2022/04/22 06:17:42;;;;;;;9.82;6.10;;;;;;;;;;4915648;29;20099;-52
2022/04/22 06:20:09;;;;;;;9.05;5.60;;;;;;;;;;4911977;28;20103;-54
2022/04/22 06:22:34;;;;;;;9.55;5.85;;;;;;;;;;4912231;29;20070;-57
2022/04/22 06:25:00;;;;;;;9.77;5.55;;;;;;;;;;4914365;29;20999;-54
2022/04/22 06:27:27;;;;;;;7.53;5.22;;;;;;;;;;4914352;29;20119;-52
2022/04/22 06:29:54;;;;;;;7.70;5.43;;;;;;;;;;4911715;29;20048;-55
2022/04/22 06:32:21;;;;;;;8.48;5.15;;;;;;;;;;4909234;28;20053;-54
2022/04/22 06:34:47;;;;;;;8.38;6.00;;;;;;;;;;4913997;29;20616;-56
2022/04/22 06:37:13;;;;;;;9.00;5.50;;;;;;;;;;4914352;29;20091;-53
2022/04/22 06:47:53;;;;;;;6.57;5.20;;;;;;;;;;4914617;29;20066;-53
2022/04/22 06:50:19;;;;;;;6.78;5.38;;;;;;;;;;4911443;29;20487;-52
2022/04/22 06:52:47;;;;;;;7.78;5.38;;;;;;;;;;4911629;29;20071;-53
2022/04/22 06:55:17;;;;;;;8.57;5.97;;;;;;;;;;4912872;29;20538;-55
2022/04/22 06:57:46;;;;;;;8.07;5.40;;;;;;;;;;4925054;29;20057;-53
2022/04/22 07:00:13;;;;;;;7.85;5.70;;;;;;;;;;4912643;29;20100;-54
2022/04/22 07:02:39;;;;;;;6.50;5.20;;;;;;;;;;4908025;29;20048;-55
2022/04/22 07:05:05;;;;;;;8.07;5.18;;;;;;;;;;4913665;29;20093;-55
2022/04/22 07:07:31;;;;;;;7.20;5.30;;;;;;;;;;4912702;29;20639;-56
2022/04/22 07:09:57;;;;;;;7.20;4.93;;;;;;;;;;4914456;29;20043;-54
2022/04/22 07:12:26;;;;;;;6.40;5.03;;;;;;;;;;4911355;29;20052;-55
2022/04/22 07:14:57;;;;;;;6.72;4.88;;;;;;;;;;4911968;29;20044;-53
2022/04/22 07:17:23;;;;;;;7.93;4.90;;;;;;;;;;4912589;28;20052;-56
2022/04/22 07:19:48;;;;;;;8.70;5.43;;;;;;;;;;4912038;29;20403;-56
2022/04/22 07:22:14;;;;;;;6.80;4.95;;;;;;;;;;4911430;29;20086;-57
2022/04/22 07:24:39;;;;;;;12.02;4.93;;;;;;;;;;4927887;29;20087;-53
2022/04/22 07:27:05;;;;;;;10.15;5.28;;;;;;;;;;4910560;29;20048;-55
2022/04/22 07:29:33;;;;;;;6.70;4.57;;;;;;;;;;4910660;29;20054;-56
2022/04/22 07:31:58;;;;;;;6.70;4.43;;;;;;;;;;4912043;28;20505;-57
2022/04/22 07:34:24;;;;;;;6.60;5.20;;;;;;;;;;4908334;29;20044;-54
2022/04/22 07:36:50;;;;;;;7.55;4.70;;;;;;;;;;4911804;29;20065;-56
2022/04/22 07:39:15;;;;;;;7.82;4.60;;;;;;;;;;4914099;29;20051;-62
2022/04/22 07:41:43;;;;;;;7.07;4.63;;;;;;;;;;4911263;29;20444;-56
2022/04/22 07:46:58;;;;;;;6.30;4.80;;;;;;;;;;4912011;29;20468;-59
2022/04/22 07:49:25;;;;;;;6.25;4.50;;;;;;;;;;4912116;29;20040;-55
2022/04/22 07:51:50;;;;;;;6.38;5.13;;;;;;;;;;4912289;29;20108;-54
2022/04/22 07:54:16;;;;;;;7.80;5.35;;;;;;;;;;4898186;29;20052;-51
2022/04/22 07:56:42;;;;;;;6.75;5.18;;;;;;;;;;4904500;29;20052;-51
2022/04/22 07:59:08;;;;;;;9.70;4.55;;;;;;;;;;4912786;29;20068;-52
2022/04/22 08:01:34;;;;;;;7.65;4.78;;;;;;;;;;4912756;28;20075;-51
2022/04/22 08:03:59;;;;;;;6.80;4.85;;;;;;;;;;4910378;29;20910;-51
2022/04/22 08:06:25;;;;;;;7.22;5.05;;;;;;;;;;4912619;29;20422;-51
2022/04/22 08:08:50;;;;;;;6.97;5.10;;;;;;;;;;4911637;29;20083;-57
2022/04/22 08:11:15;;;;;;;8.23;5.07;;;;;;;;;;4910482;29;20422;-53
2022/04/22 08:13:41;;;;;;;12.93;5.47;;;;;;;;;;4913684;29;20040;-53
2022/04/22 08:16:07;;;;;;;8.65;5.30;;;;;;;;;;4913818;29;20032;-52
2022/04/22 08:18:32;;;;;;;7.63;5.22;;;;;;;;;;4912535;29;20055;-58
2022/04/22 08:20:58;;;;;;;9.77;5.63;;;;;;;;;;4909961;29;20044;-55
2022/04/22 08:23:23;;;;;;;8.15;5.68;;;;;;;;;;4912924;29;20059;-52
2022/04/22 08:25:49;;;;;;;8.55;5.30;;;;;;;;;;4913165;29;20447;-52
2022/04/22 08:28:14;;;;;;;8.50;5.32;;;;;;;;;;4909969;29;20044;-53
2022/04/22 08:30:40;;;;;;;6.80;5.28;;;;;;;;;;4914045;29;20040;-52
2022/04/22 08:33:05;;;;;;;10.00;6.05;;;;;;;;;;4916130;29;20079;-52
2022/04/22 08:35:31;;;;;;;7.55;5.30;;;;;;;;;;4913186;29;20056;-52
2022/04/22 08:37:59;;;;;;;7.00;5.30;;;;;;;;;;4913898;29;20104;-59
2022/04/22 08:40:26;;;;;;;7.13;5.70;;;;;;;;;;4911967;29;20519;-53
2022/04/22 08:42:53;;;;;;;7.90;5.47;;;;;;;;;;4913274;29;20407;-50
2022/04/22 08:45:25;;;;;;;9.60;5.78;;;;;;;;;;4911581;29;20056;-53
2022/04/22 08:50:35;;;;;;;10.30;5.40;;;;;;;;;;4913137;29;20106;-55
2022/04/22 08:53:06;;;;;;;17.88;5.32;;;;;;;;;;4913614;29;20080;-53
2022/04/22 08:55:32;;;;;;;8.23;5.35;;;;;;;;;;4911633;28;20034;-51
2022/04/22 08:57:59;;;;;;;7.80;5.45;;;;;;;;;;4914125;29;20032;-54
2022/04/22 09:00:27;;;;;;;6.15;5.05;;;;;;;;;;4913428;29;20064;-53
2022/04/22 09:02:57;;;;;;;7.80;5.38;;;;;;;;;;4912653;29;20063;-52
2022/04/22 09:05:24;;;;;;;6.93;5.45;;;;;;;;;;4910795;29;20040;-54
2022/04/22 09:07:51;;;;;;;7.45;4.60;;;;;;;;;;4910750;29;20056;-51
2022/04/22 09:10:17;;;;;;;8.43;4.82;;;;;;;;;;4911701;29;20042;-54
2022/04/22 09:12:50;;;;;;;8.70;5.30;;;;;;;;;;4911350;29;20135;-55
2022/04/22 09:15:16;;;;;;;7.40;5.50;;;;;;;;;;4911983;29;20056;-55
2022/04/22 09:17:41;;;;;;;5.72;4.88;;;;;;;;;;4910976;29;20665;-56
2022/04/22 09:20:13;;;;;;;8.50;5.03;;;;;;;;;;4912532;29;20068;-51
2022/04/22 09:22:38;;;;;;;6.38;4.75;;;;;;;;;;4910016;29;20486;-53
2022/04/22 09:25:07;;;;;;;6.43;5.18;;;;;;;;;;4912152;29;20067;-55
2022/04/22 09:27:33;;;;;;;6.90;4.97;;;;;;;;;;4910149;29;20060;-53
2022/04/22 09:30:00;;;;;;;6.90;4.97;;;;;;;;;;4910549;29;20075;-52
2022/04/22 09:32:30;;;;;;;8.60;5.13;;;;;;;;;;4912328;29;20060;-55
2022/04/22 09:34:58;;;;;;;7.20;5.10;;;;;;;;;;4910299;29;20051;-51
2022/04/22 09:42:57;;;;;;;6.60;4.93;;;;;;;;;;4910382;29;20058;-58
2022/04/22 09:45:44;;;;;;;6.45;5.13;;;;;;;;;;4911494;29;20143;-53
2022/04/22 09:48:14;;;;;;;7.80;5.00;;;;;;;;;;4898614;29;20049;-55
2022/04/22 09:50:53;;;;;;;9.88;5.28;;;;;;;;;;4904970;29;20602;-60
2022/04/22 09:53:33;;;;;;;7.60;4.20;;;;;;;;;;4914510;29;20079;-60
2022/04/22 09:56:05;;;;;;;6.82;5.10;;;;;;;;;;4913114;29;20385;-60
2022/04/22 09:58:31;;;;;;;6.43;4.80;;;;;;;;;;4894827;29;20100;-60
2022/04/22 10:01:01;;;;;;;6.60;4.60;;;;;;;;;;4895195;29;20036;-60
2022/04/22 10:03:29;;;;;;;7.50;4.57;;;;;;;;;;4894443;29;20105;-60
2022/04/22 10:05:55;;;;;;;5.80;4.30;;;;;;;;;;4893108;29;20056;-60
2022/04/22 10:08:25;;;;;;;6.90;4.38;;;;;;;;;;4892875;29;20069;-60
2022/04/22 10:10:52;;;;;;;9.55;5.50;;;;;;;;;;4893942;29;20048;-59
2022/04/22 10:13:22;;;;;;;6.13;4.72;;;;;;;;;;4895271;29;20037;-58
2022/04/22 10:15:47;;;;;;;6.75;5.00;;;;;;;;;;4896988;29;20076;-59
2022/04/22 10:18:15;;;;;;;4.57;4.18;;;;;;;;;;4912761;29;20147;-62
2022/04/22 10:20:41;;;;;;;6.38;4.70;;;;;;;;;;4913515;29;20059;-62
2022/04/22 10:23:06;;;;;;;6.05;4.32;;;;;;;;;;4912526;29;20053;-60
2022/04/22 10:25:32;;;;;;;8.43;4.95;;;;;;;;;;4896834;29;20472;-61
2022/04/22 10:28:01;;;;;;;6.93;4.53;;;;;;;;;;4914909;29;20044;-61
2022/04/22 10:30:28;;;;;;;8.23;4.60;;;;;;;;;;4911633;28;20139;-61
2022/04/22 10:32:53;;;;;;;5.78;4.50;;;;;;;;;;4903534;29;20583;-60
2022/04/22 10:35:23;;;;;;;6.93;4.80;;;;;;;;;;4902267;29;20135;-60
2022/04/22 10:37:49;;;;;;;5.85;4.28;;;;;;;;;;4911715;28;20056;-60
2022/04/22 10:40:19;;;;;;;7.38;4.68;;;;;;;;;;4899387;29;20033;-60
2022/04/22 10:42:45;;;;;;;5.43;4.55;;;;;;;;;;4914883;29;20403;-60
2022/04/22 10:47:55;;;;;;;5.90;4.20;;;;;;;;;;4908349;28;20411;-60
2022/04/22 10:50:42;;;;;;;6.70;4.07;;;;;;;;;;4915638;29;20040;-60
2022/04/22 10:53:09;;;;;;;5.38;3.85;;;;;;;;;;4913759;28;20058;-59
2022/04/22 10:55:38;;;;;;;6.13;4.15;;;;;;;;;;4918615;29;20040;-60
2022/04/22 10:58:12;;;;;;;5.32;3.90;;;;;;;;;;4915294;29;20113;-59
2022/04/22 11:00:42;;;;;;;4.82;4.25;;;;;;;;;;4915358;29;20383;-60
2022/04/22 11:03:15;;;;;;;6.93;4.00;;;;;;;;;;4916027;29;20071;-60
2022/04/22 11:05:48;;;;;;;8.85;4.93;;;;;;;;;;4915518;29;20059;-61
2022/04/22 11:08:19;;;;;;;8.85;3.80;;;;;;;;;;4911980;29;20403;-59
2022/04/22 11:10:54;;;;;;;5.32;3.88;;;;;;;;;;4910608;29;20069;-59
2022/04/22 11:13:33;;;;;;;7.38;4.07;;;;;;;;;;4911847;29;20060;-57
2022/04/22 11:16:11;;;;;;;5.75;4.47;;;;;;;;;;4913629;29;20056;-58
2022/04/22 11:18:42;;;;;;;5.78;3.53;;;;;;;;;;4912719;29;20044;-57
2022/04/22 11:21:33;;;;;;;9.15;3.90;;;;;;;;;;4912557;29;20059;-55
2022/04/22 11:23:59;;;;;;;5.20;3.72;;;;;;;;;;4902357;29;20424;-57
2022/04/22 11:26:25;;;;;;;3.63;3.33;;;;;;;;;;4894251;29;20061;-59
2022/04/22 11:28:50;;;;;;;5.18;3.70;;;;;;;;;;4892080;29;20078;-59
2022/04/22 11:31:18;;;;;;;5.43;3.97;;;;;;;;;;4893104;29;20036;-60
2022/04/22 11:33:52;;;;;;;10.88;3.70;;;;;;;;;;4893207;29;20045;-59
2022/04/22 11:36:17;;;;;;;4.45;3.58;;;;;;;;;;4896063;29;20562;-58
2022/04/22 11:38:54;;;;;;;5.15;3.83;;;;;;;;;;4896069;29;20052;-58
2022/04/22 11:41:20;;;;;;;4.85;3.90;;;;;;;;;;4892489;29;20052;-55
2022/04/22 11:43:49;;;;;;;5.15;3.42;;;;;;;;;;4893925;29;20036;-54
2022/04/22 11:46:17;;;;;;;4.45;3.80;;;;;;;;;;4896270;29;20051;-56
2022/04/22 11:48:50;;;;;;;6.53;3.60;;;;;;;;;;4894156;29;20510;-57
2022/04/22 11:51:19;;;;;;;7.30;4.00;;;;;;;;;;4895002;29;20053;-58
2022/04/22 11:53:46;;;;;;;4.85;3.40;;;;;;;;;;4893716;29;20047;-54
2022/04/22 11:56:16;;;;;;;6.20;4.32;;;;;;;;;;4894320;29;20060;-52
2022/04/22 11:58:41;;;;;;;9.25;3.35;;;;;;;;;;4893861;29;20083;-60
2022/04/22 12:06:39;;;;;;;4.00;3.28;;;;;;;;;;4892021;29;20051;-59
2022/04/22 12:09:06;;;;;;;7.63;3.50;;;;;;;;;;4893018;29;20403;-59
2022/04/22 12:11:42;;;;;;;6.30;4.13;;;;;;;;;;4892755;29;20067;-60
2022/04/22 12:14:09;;;;;;;3.88;3.47;;;;;;;;;;4892426;29;20055;-59
2022/04/22 12:16:34;;;;;;;4.60;3.45;;;;;;;;;;4896276;29;20032;-60
2022/04/22 12:19:00;;;;;;;4.68;3.60;;;;;;;;;;4894459;29;20059;-58
2022/04/22 12:21:30;;;;;;;4.20;3.58;;;;;;;;;;4894195;29;20052;-58
2022/04/22 12:24:02;;;;;;;5.30;3.40;;;;;;;;;;4893270;29;20044;-59
2022/04/22 12:26:33;;;;;;;3.85;3.42;;;;;;;;;;4893442;29;20460;-59
2022/04/22 12:29:18;;;;;;;6.00;3.67;;;;;;;;;;4890074;29;20124;-57
2022/04/22 12:31:46;;;;;;;5.53;3.50;;;;;;;;;;4891754;29;20123;-57
2022/04/22 12:34:25;;;;;;;6.68;3.72;;;;;;;;;;4892033;29;20043;-59
2022/04/22 12:36:55;;;;;;;4.65;3.60;;;;;;;;;;4913623;29;20052;-57
2022/04/22 12:39:38;;;;;;;5.07;3.55;;;;;;;;;;4912667;29;20059;-59
2022/04/22 12:42:27;;;;;;;4.60;3.50;;;;;;;;;;4911762;29;20051;-59
2022/04/22 12:54:09;;;;;;;5.38;3.45;;;;;;;;;;4891085;29;20127;-58
2022/04/22 12:56:35;;;;;;;8.30;3.40;;;;;;;;;;4894486;29;20049;-60
2022/04/22 12:59:05;;;;;;;6.97;3.25;;;;;;;;;;4892902;29;20159;-58
2022/04/22 13:01:38;;;;;;;5.38;3.20;;;;;;;;;;4893982;29;20051;-58
2022/04/22 13:04:18;;;;;;;8.82;3.42;;;;;;;;;;4912387;29;20042;-57
2022/04/22 13:06:47;;;;;;;6.00;4.18;;;;;;;;;;4912506;29;20122;-58
2022/04/22 13:09:15;;;;;;;4.22;3.53;;;;;;;;;;4900699;29;20053;-59
2022/04/22 13:11:40;;;;;;;7.15;3.53;;;;;;;;;;4902631;29;20594;-59
2022/04/22 13:14:07;;;;;;;5.88;3.38;;;;;;;;;;4913594;28;20155;-60
2022/04/22 13:16:33;;;;;;;5.65;3.05;;;;;;;;;;4912148;29;20036;-56
2022/04/22 13:18:59;;;;;;;5.00;3.20;;;;;;;;;;4892926;29;20037;-58
2022/04/22 13:21:25;;;;;;;5.72;3.10;;;;;;;;;;4910204;29;20044;-58
2022/04/22 13:23:50;;;;;;;8.02;3.22;;;;;;;;;;4910432;28;20078;-59
2022/04/22 13:26:20;;;;;;;5.75;3.20;;;;;;;;;;4911007;29;20067;-59
2022/04/22 13:28:46;;;;;;;4.68;2.65;;;;;;;;;;4894482;29;20065;-59
2022/04/22 13:31:12;;;;;;;3.63;3.00;;;;;;;;;;4893686;29;20097;-58
2022/04/22 13:33:37;;;;;;;9.02;3.45;;;;;;;;;;4895312;29;20044;-59
2022/04/22 13:36:04;;;;;;;5.65;2.95;;;;;;;;;;4893914;29;20071;-59
2022/04/22 13:38:31;;;;;;;3.83;3.05;;;;;;;;;;4896561;29;20052;-60
2022/04/22 13:40:57;;;;;;;4.80;3.17;;;;;;;;;;4893883;29;21348;-59
2022/04/22 13:43:22;;;;;;;8.13;3.30;;;;;;;;;;4896683;29;20399;-60
2022/04/22 13:54:01;;;;;;;4.65;3.35;;;;;;;;;;4894914;29;20112;-60
2022/04/22 13:56:26;;;;;;;4.68;3.53;;;;;;;;;;4892007;29;20453;-60
2022/04/22 13:58:51;;;;;;;7.68;3.10;;;;;;;;;;4891313;29;20177;-59
2022/04/22 14:01:17;;;;;;;3.13;2.83;;;;;;;;;;4895803;29;20054;-58
2022/04/22 14:03:44;;;;;;;4.05;3.08;;;;;;;;;;4890615;29;20072;-57
2022/04/22 14:06:09;;;;;;;7.68;3.28;;;;;;;;;;4896530;29;20080;-57
2022/04/22 14:08:35;;;;;;;3.42;3.10;;;;;;;;;;4896756;29;20049;-58
2022/04/22 14:11:01;;;;;;;3.97;3.03;;;;;;;;;;4896294;29;20090;-59
2022/04/22 14:13:27;;;;;;;6.63;3.10;;;;;;;;;;4896509;29;20562;-64
2022/04/22 14:15:53;;;;;;;5.35;2.88;;;;;;;;;;4893084;29;20037;-59
2022/04/22 14:18:20;;;;;;;3.35;3.00;;;;;;;;;;4894576;29;20049;-58
2022/04/22 14:20:45;;;;;;;3.00;2.70;;;;;;;;;;4892220;29;20063;-58
2022/04/22 14:23:11;;;;;;;4.00;3.40;;;;;;;;;;4893507;29;20044;-59
2022/04/22 14:25:36;;;;;;;7.85;3.00;;;;;;;;;;4894832;29;20392;-60
2022/04/22 14:28:03;;;;;;;4.63;3.30;;;;;;;;;;4895303;29;20178;-59
2022/04/22 14:30:28;;;;;;;6.72;3.72;;;;;;;;;;4896617;29;20056;-60
2022/04/22 14:32:54;;;;;;;4.05;3.65;;;;;;;;;;4908456;29;20055;-62
2022/04/22 14:35:19;;;;;;;9.98;3.30;;;;;;;;;;4910538;29;20056;-65
2022/04/22 14:37:45;;;;;;;12.10;3.40;;;;;;;;;;4914057;29;20103;-62
2022/04/22 14:40:10;;;;;;;8.88;3.47;;;;;;;;;;4914079;29;20050;-60
2022/04/22 14:42:35;;;;;;;4.35;3.08;;;;;;;;;;4915668;29;20157;-61
2022/04/22 14:45:01;;;;;;;11.90;4.05;;;;;;;;;;4900947;29;20048;-62
2022/04/22 14:47:26;;;;;;;4.70;3.50;;;;;;;;;;4903013;29;20053;-57
2022/04/22 14:49:52;;;;;;;5.30;3.13;;;;;;;;;;4908613;29;20059;-58
2022/04/22 14:52:19;;;;;;;4.35;3.00;;;;;;;;;;4896916;29;20048;-60
2022/04/22 14:54:44;;;;;;;4.20;3.08;;;;;;;;;;4911524;29;20152;-59
2022/04/22 14:57:10;;;;;;;7.15;2.97;;;;;;;;;;4913837;29;20139;-60
2022/04/22 14:59:35;;;;;;;5.63;3.25;;;;;;;;;;4915776;29;20048;-59
2022/04/22 15:02:01;;;;;;;4.40;3.15;;;;;;;;;;4909135;29;20044;-59
2022/04/22 15:04:26;;;;;;;3.80;2.70;;;;;;;;;;4897998;29;20127;-61
2022/04/22 15:06:52;;;;;;;7.13;2.67;;;;;;;;;;4911438;29;20467;-57
2022/04/22 15:09:18;;;;;;;4.55;3.20;;;;;;;;;;4899420;29;20608;-57
2022/04/22 15:11:43;;;;;;;3.65;2.80;;;;;;;;;;4893609;29;20075;-59
2022/04/22 15:14:09;;;;;;;4.53;2.80;;;;;;;;;;4896261;29;20135;-59
2022/04/22 15:16:35;;;;;;;5.05;2.90;;;;;;;;;;4891981;29;20467;-58
2022/04/22 15:24:29;;;;;;;7.20;3.00;;;;;;;;;;4895085;29;20164;-59
2022/04/22 15:26:57;;;;;;;3.05;2.70;;;;;;;;;;4894453;29;20123;-60
2022/04/22 15:29:23;;;;;;;4.35;2.97;;;;;;;;;;4900691;29;20479;-58
2022/04/22 15:31:49;;;;;;;4.70;2.63;;;;;;;;;;4913509;29;20051;-60
2022/04/22 15:34:14;;;;;;;3.95;2.95;;;;;;;;;;4911318;29;20054;-55
2022/04/22 15:36:41;;;;;;;5.90;2.95;;;;;;;;;;4893276;29;20045;-54
2022/04/22 15:39:07;;;;;;;3.53;2.85;;;;;;;;;;4890149;29;20047;-55
2022/04/22 15:41:33;;;;;;;3.75;3.00;;;;;;;;;;4894906;29;20476;-54
2022/04/22 15:44:01;;;;;;;5.50;3.08;;;;;;;;;;4895426;29;20052;-53
2022/04/22 15:46:27;;;;;;;5.38;2.92;;;;;;;;;;4914167;29;20028;-54
2022/04/22 15:48:53;;;;;;;4.15;2.90;;;;;;;;;;4910042;29;20028;-55
2022/04/22 15:51:21;;;;;;;3.65;2.80;;;;;;;;;;4911414;29;20044;-58
2022/04/22 15:53:48;;;;;;;8.68;3.75;;;;;;;;;;4911091;29;20052;-55
2022/04/22 15:56:15;;;;;;;3.65;2.95;;;;;;;;;;4910968;29;20043;-51
2022/04/22 15:58:45;;;;;;;4.00;3.33;;;;;;;;;;4909128;29;20054;-53
2022/04/22 16:01:14;;;;;;;6.10;3.83;;;;;;;;;;4909633;29;20024;-54
2022/04/22 16:03:39;;;;;;;6.53;2.95;;;;;;;;;;4911393;29;20058;-55